Time;durP1;ratioP1;P1;durP2;ratioP2;P2;SDS_P1;SDS_P2;PMS_P1;PMS_P2;Temp;Humidity;BMP_temperature;BMP_pressure;BME280_temperature;BME280_humidity;BME280_pressure;Samples;Min_cycle;Max_cycle;Signal;HPM_P1;HPM_P2
2023/10/11 00:00:33;;;;;;;7.50;4.50;;;13.00;94.70;;;;;;5088384;28;20697;-69
2023/10/11 00:03:05;;;;;;;6.47;3.23;;;13.00;94.90;;;;;;5090038;28;20702;-69
2023/10/11 00:05:37;;;;;;;10.40;3.80;;;13.00;94.50;;;;;;5089907;28;21213;-69
2023/10/11 00:08:07;;;;;;;5.30;3.67;;;13.00;94.50;;;;;;5090091;28;20629;-69
2023/10/11 00:10:42;;;;;;;5.80;4.23;;;13.00;94.60;;;;;;5090532;28;20675;-69
2023/10/11 00:13:10;;;;;;;6.63;3.30;;;13.00;94.50;;;;;;5089506;28;20693;-69
2023/10/11 00:15:39;;;;;;;5.50;4.27;;;13.00;94.50;;;;;;5089757;28;20627;-69
2023/10/11 00:18:07;;;;;;;7.20;3.57;;;13.00;94.60;;;;;;5090415;27;20636;-69
2023/10/11 00:20:47;;;;;;;3.57;2.93;;;13.10;94.40;;;;;;5093431;27;20632;-69
2023/10/11 00:23:15;;;;;;;4.87;3.17;;;13.10;94.30;;;;;;5093933;27;21133;-69
2023/10/11 00:25:44;;;;;;;5.20;3.37;;;13.00;94.40;;;;;;5092612;27;21203;-69
2023/10/11 00:28:11;;;;;;;8.63;3.90;;;12.90;94.60;;;;;;5092832;27;20628;-69
2023/10/11 00:30:38;;;;;;;3.90;3.37;;;13.00;94.40;;;;;;5094279;27;20892;-69
2023/10/11 00:33:07;;;;;;;4.97;3.20;;;13.00;94.40;;;;;;5093217;27;20631;-69
2023/10/11 00:35:34;;;;;;;5.27;4.20;;;13.00;94.40;;;;;;5093864;27;21027;-69
2023/10/11 00:38:05;;;;;;;6.27;3.63;;;12.90;94.40;;;;;;5093016;27;20979;-69
2023/10/11 00:40:34;;;;;;;6.20;4.20;;;12.90;94.60;;;;;;5092064;27;20628;-69
2023/10/11 00:43:01;;;;;;;5.73;3.13;;;13.00;94.60;;;;;;5094231;27;20632;-69
2023/10/11 00:45:31;;;;;;;6.77;3.30;;;13.00;94.40;;;;;;5093412;27;20625;-69
2023/10/11 00:47:59;;;;;;;7.03;3.30;;;13.10;94.50;;;;;;5092826;27;20613;-69
2023/10/11 00:50:30;;;;;;;5.00;3.40;;;13.20;94.20;;;;;;5092417;27;20656;-69
2023/10/11 00:53:00;;;;;;;4.93;3.00;;;13.10;94.40;;;;;;5092792;27;20625;-69
2023/10/11 00:55:29;;;;;;;4.50;3.77;;;13.00;94.50;;;;;;5092879;27;20731;-69
2023/10/11 00:57:57;;;;;;;8.37;3.00;;;13.00;94.60;;;;;;5091791;27;20631;-69
2023/10/11 01:00:25;;;;;;;4.70;3.73;;;12.90;94.90;;;;;;5092809;27;20638;-69
2023/10/11 01:02:53;;;;;;;6.40;4.07;;;12.90;95.20;;;;;;5091768;27;20806;-69
2023/10/11 01:05:20;;;;;;;4.87;3.50;;;12.90;95.10;;;;;;5092192;27;20631;-69
2023/10/11 01:07:50;;;;;;;9.47;4.50;;;12.80;95.10;;;;;;5092352;27;20636;-69
2023/10/11 01:10:20;;;;;;;7.40;3.10;;;12.80;95.30;;;;;;5093026;27;20612;-69
2023/10/11 01:12:47;;;;;;;6.00;3.77;;;12.70;95.40;;;;;;5092747;27;20621;-70
2023/10/11 01:15:22;;;;;;;7.67;4.17;;;12.90;95.30;;;;;;5092085;27;21048;-69
2023/10/11 01:17:50;;;;;;;9.00;4.27;;;12.90;95.10;;;;;;5092098;27;20633;-69
2023/10/11 01:20:19;;;;;;;5.83;4.07;;;12.70;95.30;;;;;;5092312;27;20636;-69
2023/10/11 01:22:48;;;;;;;4.77;3.50;;;12.60;95.80;;;;;;5091787;27;20815;-69
2023/10/11 01:25:18;;;;;;;4.90;4.00;;;12.50;95.90;;;;;;5092964;27;20625;-70
2023/10/11 01:27:47;;;;;;;7.47;4.00;;;12.50;95.90;;;;;;5089315;27;20619;-70
2023/10/11 01:30:15;;;;;;;5.70;3.80;;;12.70;95.60;;;;;;5092362;27;20621;-70
2023/10/11 01:32:43;;;;;;;5.03;3.80;;;12.70;95.60;;;;;;5091045;27;20770;-69
2023/10/11 01:35:18;;;;;;;5.50;3.90;;;12.60;95.50;;;;;;5092763;27;20670;-69
2023/10/11 01:37:48;;;;;;;6.73;3.93;;;12.70;95.70;;;;;;5091753;27;20819;-70
2023/10/11 01:40:21;;;;;;;4.67;3.70;;;12.70;95.60;;;;;;5092267;27;21208;-69
2023/10/11 01:42:50;;;;;;;9.13;5.07;;;12.70;95.50;;;;;;5091702;27;20665;-69
2023/10/11 01:45:19;;;;;;;6.27;4.17;;;12.70;95.50;;;;;;5091223;27;20629;-70
2023/10/11 01:47:47;;;;;;;8.50;4.03;;;12.80;95.50;;;;;;5090841;27;20966;-69
2023/10/11 01:50:16;;;;;;;6.00;3.57;;;12.70;95.50;;;;;;5092646;27;20635;-70
2023/10/11 01:52:43;;;;;;;6.00;4.00;;;12.60;95.80;;;;;;5091858;27;20629;-70
2023/10/11 01:55:13;;;;;;;6.40;3.43;;;12.50;96.00;;;;;;5091872;27;21369;-70
2023/10/11 01:57:45;;;;;;;9.80;3.67;;;12.60;96.00;;;;;;5090530;27;20625;-70
2023/10/11 02:00:14;;;;;;;4.20;3.80;;;12.60;96.00;;;;;;5092337;27;20640;-70
2023/10/11 02:02:47;;;;;;;6.73;4.77;;;12.60;96.10;;;;;;5091537;27;20655;-70
2023/10/11 02:05:17;;;;;;;7.70;4.70;;;12.60;96.00;;;;;;5091594;27;20850;-70
2023/10/11 02:07:44;;;;;;;5.70;2.93;;;12.50;96.00;;;;;;5090842;27;20628;-70
2023/10/11 02:10:13;;;;;;;6.60;3.87;;;12.50;96.20;;;;;;5091178;27;21124;-70
2023/10/11 02:12:44;;;;;;;4.50;3.73;;;12.40;96.30;;;;;;5090871;27;21002;-69
2023/10/11 02:15:21;;;;;;;6.57;3.53;;;12.50;96.30;;;;;;5091990;27;21290;-69
2023/10/11 02:17:51;;;;;;;5.40;3.50;;;12.50;96.10;;;;;;5090203;27;20651;-69
2023/10/11 02:20:22;;;;;;;6.43;4.20;;;12.50;96.20;;;;;;5092115;27;20620;-69
2023/10/11 02:22:55;;;;;;;4.37;3.93;;;12.50;96.30;;;;;;5091124;27;20671;-69
2023/10/11 02:25:25;;;;;;;3.87;3.53;;;12.60;96.20;;;;;;5092179;27;20639;-69
2023/10/11 02:27:55;;;;;;;3.70;3.23;;;12.50;96.20;;;;;;5090213;27;21897;-69
2023/10/11 02:30:24;;;;;;;5.47;3.87;;;12.50;96.30;;;;;;5089806;27;21064;-69
2023/10/11 02:32:58;;;;;;;7.70;4.33;;;12.50;96.30;;;;;;5090417;27;20632;-69
2023/10/11 02:35:27;;;;;;;7.33;3.80;;;12.40;96.40;;;;;;5091315;27;20964;-71
2023/10/11 02:37:56;;;;;;;5.03;3.57;;;12.40;96.60;;;;;;5090634;27;20643;-69
2023/10/11 02:40:25;;;;;;;6.50;4.70;;;12.40;96.70;;;;;;5091128;27;21037;-69
2023/10/11 02:42:55;;;;;;;5.97;3.53;;;12.30;97.00;;;;;;5088569;27;20668;-69
2023/10/11 02:45:23;;;;;;;7.83;4.37;;;12.20;97.10;;;;;;5089922;27;20677;-69
2023/10/11 02:47:59;;;;;;;4.23;3.30;;;12.20;97.20;;;;;;5089698;27;21115;-69
2023/10/11 02:50:26;;;;;;;5.63;4.07;;;12.20;97.40;;;;;;5091208;27;20634;-69
2023/10/11 02:52:59;;;;;;;5.60;3.60;;;12.30;97.30;;;;;;5091186;27;21156;-69
2023/10/11 02:55:27;;;;;;;3.90;3.37;;;12.20;97.20;;;;;;5090694;27;20639;-69
2023/10/11 02:58:05;;;;;;;7.93;4.33;;;12.20;97.30;;;;;;5089785;27;20757;-69
2023/10/11 03:00:33;;;;;;;4.33;2.80;;;12.20;97.20;;;;;;5089720;28;21219;-69
2023/10/11 03:03:00;;;;;;;5.67;4.03;;;12.30;97.60;;;;;;5089299;27;20675;-69
2023/10/11 03:05:28;;;;;;;5.57;3.60;;;12.30;97.40;;;;;;5089820;28;20628;-69
2023/10/11 03:08:13;;;;;;;5.77;3.20;;;12.20;97.20;;;;;;5089252;28;20630;-69
2023/10/11 03:10:45;;;;;;;4.33;3.33;;;12.30;97.30;;;;;;5090044;28;20653;-69
2023/10/11 03:13:19;;;;;;;6.27;4.43;;;12.10;97.50;;;;;;5089712;28;20625;-69
2023/10/11 03:15:47;;;;;;;4.37;2.90;;;12.00;97.80;;;;;;5089687;28;21546;-69
2023/10/11 03:18:15;;;;;;;4.10;3.70;;;12.00;97.90;;;;;;5091885;28;21093;-69
2023/10/11 03:20:44;;;;;;;6.00;4.20;;;12.00;97.80;;;;;;5091051;28;20621;-69
2023/10/11 03:23:11;;;;;;;9.83;3.50;;;12.20;97.70;;;;;;5090959;28;20749;-69
2023/10/11 03:25:44;;;;;;;3.60;3.30;;;12.20;98.00;;;;;;5089809;28;20977;-69
2023/10/11 03:28:15;;;;;;;4.30;3.83;;;12.20;97.70;;;;;;5090384;28;20625;-69
2023/10/11 03:30:42;;;;;;;4.73;3.53;;;12.20;97.60;;;;;;5090161;28;20710;-69
2023/10/11 03:33:10;;;;;;;10.93;4.50;;;12.20;97.30;;;;;;5090541;28;20624;-69
2023/10/11 03:35:38;;;;;;;4.87;3.63;;;12.20;97.40;;;;;;5089978;28;21282;-69
2023/10/11 03:38:16;;;;;;;4.23;3.07;;;12.30;97.30;;;;;;5090581;28;20752;-69
2023/10/11 03:40:55;;;;;;;4.77;3.40;;;12.30;97.40;;;;;;5090163;27;20617;-70
2023/10/11 03:43:26;;;;;;;8.37;4.10;;;12.30;97.30;;;;;;5090539;28;20675;-69
2023/10/11 03:45:58;;;;;;;6.27;3.27;;;12.30;97.30;;;;;;5088616;28;22188;-69
2023/10/11 03:48:28;;;;;;;8.20;3.83;;;12.40;97.10;;;;;;5090715;28;20624;-69
2023/10/11 03:50:55;;;;;;;3.80;3.17;;;12.40;97.20;;;;;;5089752;28;20624;-69
2023/10/11 03:53:21;;;;;;;5.37;3.63;;;12.50;97.40;;;;;;5090624;27;20628;-69
2023/10/11 03:55:49;;;;;;;6.80;4.37;;;12.50;97.30;;;;;;5093445;27;20628;-69
2023/10/11 03:58:29;;;;;;;6.57;4.17;;;12.50;96.90;;;;;;5093784;27;20676;-69
2023/10/11 04:01:10;;;;;;;7.90;4.43;;;12.60;97.20;;;;;;5093361;27;20634;-69
2023/10/11 04:03:39;;;;;;;5.87;3.77;;;12.60;97.10;;;;;;5092414;27;20662;-69
2023/10/11 04:06:13;;;;;;;5.07;3.77;;;12.70;97.00;;;;;;5093683;27;21202;-69
2023/10/11 04:08:41;;;;;;;9.77;4.27;;;12.60;96.90;;;;;;5096176;27;20690;-69
2023/10/11 04:11:19;;;;;;;6.77;3.87;;;12.40;97.20;;;;;;5098585;27;20656;-69
2023/10/11 04:13:50;;;;;;;6.00;4.30;;;12.30;97.30;;;;;;5099301;27;20629;-69
2023/10/11 04:16:18;;;;;;;7.10;4.23;;;12.30;97.40;;;;;;5099133;27;20628;-69
2023/10/11 04:18:45;;;;;;;5.57;4.40;;;12.40;97.40;;;;;;5099878;27;21187;-69
2023/10/11 04:21:38;;;;;;;10.00;4.33;;;12.40;97.30;;;;;;5100182;27;21074;-69
2023/10/11 04:24:07;;;;;;;6.23;3.97;;;12.30;97.20;;;;;;5100145;27;20762;-69
2023/10/11 04:26:36;;;;;;;5.20;3.53;;;12.10;97.30;;;;;;5099338;27;21172;-68
2023/10/11 04:29:17;;;;;;;4.23;3.77;;;12.10;97.60;;;;;;5097574;27;20620;-69
2023/10/11 04:32:09;;;;;;;7.73;5.33;;;12.00;97.80;;;;;;5098700;27;20634;-69
2023/10/11 04:34:38;;;;;;;8.97;5.10;;;12.00;97.90;;;;;;5098820;27;20630;-69
2023/10/11 04:37:07;;;;;;;6.87;4.67;;;11.90;97.90;;;;;;5098937;27;21256;-69
2023/10/11 04:39:34;;;;;;;5.40;4.90;;;11.90;97.80;;;;;;5099422;27;20746;-70
2023/10/11 04:42:02;;;;;;;5.37;4.07;;;11.90;98.00;;;;;;5097604;27;20662;-69
2023/10/11 04:44:36;;;;;;;5.20;3.93;;;11.90;98.00;;;;;;5097653;27;20721;-69
2023/10/11 04:47:06;;;;;;;6.10;3.70;;;11.90;98.20;;;;;;5098852;27;20657;-69
2023/10/11 04:49:34;;;;;;;11.10;3.93;;;11.80;98.10;;;;;;5098606;27;20727;-69
2023/10/11 04:52:04;;;;;;;7.00;4.60;;;11.80;98.10;;;;;;5100126;27;20631;-69
2023/10/11 04:54:42;;;;;;;6.80;4.43;;;11.90;98.10;;;;;;5098864;27;20625;-69
2023/10/11 04:57:16;;;;;;;10.60;3.80;;;11.80;98.10;;;;;;5098564;27;20615;-69
2023/10/11 04:59:46;;;;;;;7.43;3.27;;;11.80;98.00;;;;;;5103587;27;20624;-69
2023/10/11 05:02:18;;;;;;;4.43;4.03;;;11.90;98.00;;;;;;5099036;27;21294;-69
2023/10/11 05:04:46;;;;;;;5.97;4.07;;;11.90;97.80;;;;;;5096343;27;20593;-69
2023/10/11 05:07:19;;;;;;;7.60;5.07;;;12.00;97.90;;;;;;5097420;27;20207;-70
2023/10/11 05:09:52;;;;;;;7.33;4.23;;;12.10;97.80;;;;;;5099820;27;20712;-69
2023/10/11 05:12:20;;;;;;;6.77;4.40;;;12.00;97.80;;;;;;5097892;27;20632;-69
2023/10/11 05:15:03;;;;;;;7.72;4.78;;;11.90;97.90;;;;;;5096536;27;21274;-69
2023/10/11 05:17:39;;;;;;;6.47;4.07;;;11.90;98.40;;;;;;5096117;27;20199;-69
2023/10/11 05:23:05;;;;;;;5.47;3.60;;;11.80;98.30;;;;;;5049603;27;20726;-69
2023/10/11 05:25:52;;;;;;;6.00;4.10;;;11.60;98.20;;;;;;5097529;27;20628;-69
2023/10/11 05:28:27;;;;;;;3.80;3.40;;;11.70;98.40;;;;;;5096884;27;20629;-70
2023/10/11 05:33:58;;;;;;;5.23;4.20;;;11.70;98.20;;;;;;5097315;27;20660;-69
2023/10/11 05:36:39;;;;;;;5.30;3.80;;;11.60;98.20;;;;;;5095726;27;20917;-70
2023/10/11 05:52:55;;;;;;;3.67;3.37;;;11.50;98.60;;;;;;5097071;27;20625;-70
2023/10/11 05:55:22;;;;;;;5.00;4.37;;;11.40;98.70;;;;;;5099367;27;20624;-69
2023/10/11 05:57:49;;;;;;;11.40;4.80;;;11.30;99.00;;;;;;5096242;27;20647;-71
2023/10/11 06:00:23;;;;;;;6.60;4.77;;;11.40;99.20;;;;;;5096043;27;20620;-69
2023/10/11 06:02:51;;;;;;;11.70;4.23;;;11.40;99.20;;;;;;5098631;27;20652;-70
2023/10/11 06:05:22;;;;;;;12.70;5.07;;;11.30;99.40;;;;;;5097303;27;20681;-70
2023/10/11 06:08:00;;;;;;;13.53;5.87;;;11.40;99.50;;;;;;5096342;27;21211;-70
2023/10/11 06:10:32;;;;;;;11.03;5.00;;;11.30;99.50;;;;;;5097100;27;20635;-70
2023/10/11 06:12:59;;;;;;;3.93;3.57;;;11.40;99.50;;;;;;5095340;27;20631;-70
2023/10/11 06:15:25;;;;;;;5.10;3.60;;;11.50;99.30;;;;;;5096002;27;20646;-70
2023/10/11 06:17:55;;;;;;;5.90;3.30;;;11.50;99.10;;;;;;5094958;27;20635;-69
2023/10/11 06:20:26;;;;;;;5.07;4.63;;;11.60;99.10;;;;;;5096405;27;20966;-69
2023/10/11 06:22:53;;;;;;;6.40;4.57;;;11.80;98.80;;;;;;5091031;27;20663;-69
2023/10/11 06:25:49;;;;;;;5.87;4.70;;;11.90;98.80;;;;;;5094681;27;20977;-69
2023/10/11 06:28:13;;;;;;;5.83;4.90;;;12.00;98.90;;;;;;5095602;27;20628;-69
2023/10/11 06:30:42;;;;;;;13.33;4.90;;;12.00;98.60;;;;;;5095251;27;20632;-69
2023/10/11 06:33:12;;;;;;;7.80;3.90;;;12.00;98.60;;;;;;5097908;27;20702;-69
2023/10/11 06:35:43;;;;;;;7.07;4.37;;;12.00;99.10;;;;;;5095900;27;20620;-70
2023/10/11 06:38:12;;;;;;;7.03;3.90;;;12.00;98.80;;;;;;5098246;27;20630;-70
2023/10/11 06:40:47;;;;;;;6.60;4.13;;;12.10;98.70;;;;;;5095437;27;20627;-70
2023/10/11 06:43:13;;;;;;;5.83;4.20;;;12.20;98.90;;;;;;5096181;27;20672;-70
2023/10/11 06:45:41;;;;;;;7.83;4.67;;;12.20;98.80;;;;;;5095158;27;20625;-70
2023/10/11 06:48:13;;;;;;;11.63;4.47;;;12.40;99.30;;;;;;5097246;27;20636;-70
2023/10/11 06:50:41;;;;;;;5.10;4.60;;;12.70;99.60;;;;;;5098682;27;20629;-69
2023/10/11 06:53:10;;;;;;;6.00;4.00;;;12.70;98.50;;;;;;5095306;28;20695;-69
2023/10/11 06:55:39;;;;;;;7.73;4.47;;;12.80;98.40;;;;;;5094916;28;20714;-69
2023/10/11 06:58:09;;;;;;;6.77;4.00;;;13.00;98.70;;;;;;5094559;27;21240;-69
2023/10/11 07:00:45;;;;;;;6.80;4.80;;;13.10;98.10;;;;;;5095097;28;20979;-69
2023/10/11 07:03:26;;;;;;;13.70;4.20;;;13.20;97.50;;;;;;5095017;28;20749;-69
2023/10/11 07:05:58;;;;;;;4.83;3.77;;;13.20;97.80;;;;;;5094331;28;20626;-69
2023/10/11 07:08:31;;;;;;;4.33;3.40;;;13.30;97.60;;;;;;5094705;28;20624;-69
2023/10/11 07:11:03;;;;;;;7.17;4.20;;;13.30;97.80;;;;;;5096626;27;20790;-69
2023/10/11 07:13:43;;;;;;;6.27;3.17;;;13.40;97.70;;;;;;5095209;28;20879;-69
2023/10/11 07:16:10;;;;;;;5.13;3.73;;;13.40;97.60;;;;;;5097176;28;20744;-69
2023/10/11 07:18:39;;;;;;;5.70;3.87;;;13.50;97.50;;;;;;5096833;28;20621;-69
2023/10/11 07:21:08;;;;;;;8.57;4.30;;;13.70;97.60;;;;;;5096117;28;20715;-69
2023/10/11 07:23:55;;;;;;;8.53;4.10;;;13.80;97.20;;;;;;5093858;28;20659;-69
2023/10/11 07:29:12;;;;;;;4.73;3.90;;;14.00;97.20;;;;;;5092352;27;20640;-69
2023/10/11 07:31:49;;;;;;;6.47;4.80;;;14.10;97.20;;;;;;5096570;27;21066;-69
2023/10/11 07:34:18;;;;;;;5.70;4.47;;;14.20;96.70;;;;;;5098448;27;20631;-69
2023/10/11 07:36:48;;;;;;;7.87;4.40;;;14.30;96.50;;;;;;5099072;27;20709;-69
2023/10/11 07:39:19;;;;;;;4.13;3.27;;;14.40;96.50;;;;;;5100227;27;20633;-69
2023/10/11 07:41:51;;;;;;;5.37;3.33;;;14.60;96.80;;;;;;5099346;27;20725;-69
2023/10/11 07:44:27;;;;;;;4.80;3.20;;;14.70;95.70;;;;;;5098988;27;20671;-69
2023/10/11 07:46:57;;;;;;;8.23;4.50;;;14.90;94.30;;;;;;5098305;27;20623;-68
2023/10/11 07:49:38;;;;;;;4.07;2.97;;;15.00;94.40;;;;;;5098480;27;20743;-69
2023/10/11 07:52:19;;;;;;;5.93;3.10;;;15.20;93.80;;;;;;5097117;27;20627;-69
2023/10/11 07:54:46;;;;;;;4.73;3.67;;;15.30;92.90;;;;;;5093777;27;21387;-69
2023/10/11 07:57:15;;;;;;;3.30;2.90;;;15.50;92.80;;;;;;5095999;27;20668;-69
2023/10/11 08:00:00;;;;;;;7.03;4.13;;;15.60;92.90;;;;;;5096127;27;20658;-69
2023/10/11 08:02:29;;;;;;;6.10;3.57;;;15.80;92.60;;;;;;5095675;27;20631;-69
2023/10/11 08:04:57;;;;;;;6.87;3.50;;;15.90;92.60;;;;;;5096227;27;20771;-69
2023/10/11 08:07:32;;;;;;;4.70;3.23;;;16.00;92.60;;;;;;5098085;27;20621;-70
2023/10/11 08:10:29;;;;;;;4.30;3.00;;;16.10;92.60;;;;;;5097344;27;20743;-69
2023/10/11 08:12:54;;;;;;;3.03;2.60;;;16.20;92.60;;;;;;5099487;27;21213;-70
2023/10/11 08:15:22;;;;;;;4.87;3.50;;;16.40;92.30;;;;;;5094128;27;20709;-69
2023/10/11 08:17:49;;;;;;;3.70;2.90;;;16.70;92.00;;;;;;5091483;27;20639;-70
2023/10/11 08:20:16;;;;;;;6.10;3.47;;;16.90;91.20;;;;;;5091989;27;20624;-68
2023/10/11 08:22:47;;;;;;;11.33;3.67;;;17.10;90.60;;;;;;5091309;27;20631;-69
2023/10/11 08:25:14;;;;;;;6.03;2.50;;;17.20;90.60;;;;;;5092126;27;21070;-69
2023/10/11 08:27:41;;;;;;;6.33;3.00;;;17.30;91.50;;;;;;5092721;27;21347;-70
2023/10/11 08:30:09;;;;;;;8.37;3.73;;;17.40;90.70;;;;;;5093470;27;20628;-69
2023/10/11 08:32:42;;;;;;;5.83;2.27;;;17.50;90.70;;;;;;5093033;27;20777;-70
2023/10/11 08:35:10;;;;;;;4.27;3.00;;;17.80;89.40;;;;;;5092522;27;20694;-70
2023/10/11 08:37:38;;;;;;;8.03;3.50;;;18.00;86.40;;;;;;5091427;27;20624;-70
2023/10/11 08:40:19;;;;;;;6.77;2.70;;;18.10;85.20;;;;;;5091536;27;21069;-70
2023/10/11 08:42:48;;;;;;;2.07;1.87;;;18.40;84.40;;;;;;5091808;27;20643;-70
2023/10/11 08:45:21;;;;;;;4.87;3.03;;;18.50;83.50;;;;;;5093740;27;20674;-70
2023/10/11 08:47:48;;;;;;;4.53;2.70;;;18.60;83.20;;;;;;5093045;27;21004;-70
2023/10/11 08:50:18;;;;;;;3.23;2.13;;;18.80;82.50;;;;;;5091159;27;20705;-70
2023/10/11 08:52:45;;;;;;;6.33;3.00;;;19.00;81.10;;;;;;5091795;27;20635;-70
2023/10/11 08:55:17;;;;;;;14.17;2.97;;;19.10;80.70;;;;;;5092734;27;20627;-70
2023/10/11 08:57:47;;;;;;;7.47;3.30;;;19.20;80.70;;;;;;5092158;27;20616;-70
2023/10/11 09:00:28;;;;;;;4.80;2.80;;;19.20;82.80;;;;;;5092981;27;21000;-70
2023/10/11 09:02:55;;;;;;;5.43;2.73;;;19.20;81.40;;;;;;5092169;27;20635;-70
2023/10/11 09:05:29;;;;;;;7.20;3.70;;;19.40;80.60;;;;;;5091462;27;21638;-69
2023/10/11 09:07:56;;;;;;;8.87;3.30;;;19.60;79.70;;;;;;5090337;27;21165;-69
2023/10/11 09:10:27;;;;;;;3.83;2.60;;;19.60;79.40;;;;;;5091390;27;20631;-69
2023/10/11 09:12:57;;;;;;;4.10;2.50;;;19.90;77.20;;;;;;5091486;27;21376;-72
2023/10/11 09:15:36;;;;;;;9.10;2.90;;;20.00;76.90;;;;;;5091512;27;21113;-72
2023/10/11 09:18:14;;;;;;;6.33;3.67;;;20.00;77.80;;;;;;5090789;27;20665;-71
2023/10/11 09:20:41;;;;;;;5.13;3.00;;;20.30;74.10;;;;;;5091272;27;20949;-78
2023/10/11 09:23:11;;;;;;;4.57;2.70;;;20.50;76.10;;;;;;5092431;27;20625;-78
2023/10/11 09:25:57;;;;;;;6.63;3.13;;;20.50;75.70;;;;;;5090185;27;20636;-75
2023/10/11 09:28:25;;;;;;;4.13;3.43;;;20.70;75.10;;;;;;5090073;27;20616;-75
2023/10/11 09:31:09;;;;;;;6.63;3.43;;;20.90;71.80;;;;;;5091226;27;20638;-75
2023/10/11 09:33:38;;;;;;;4.27;2.30;;;20.90;73.30;;;;;;5092050;27;20624;-75
2023/10/11 09:36:06;;;;;;;5.77;3.47;;;20.90;71.90;;;;;;5089789;27;21175;-76
2023/10/11 09:38:39;;;;;;;6.00;4.00;;;21.00;71.60;;;;;;5094230;27;20631;-75
2023/10/11 09:41:08;;;;;;;4.20;2.37;;;21.10;71.40;;;;;;5095505;27;20625;-76
2023/10/11 09:43:40;;;;;;;5.73;2.77;;;21.20;73.50;;;;;;5094987;27;20642;-74
2023/10/11 09:46:11;;;;;;;7.90;2.37;;;21.20;73.40;;;;;;5097977;27;20732;-74
2023/10/11 09:48:39;;;;;;;3.97;3.00;;;21.20;73.30;;;;;;5095099;27;20705;-74
2023/10/11 09:51:08;;;;;;;7.47;3.60;;;21.50;71.10;;;;;;5095809;27;20625;-74
2023/10/11 09:53:41;;;;;;;7.00;2.90;;;21.50;71.10;;;;;;5097897;27;20633;-74
2023/10/11 09:56:24;;;;;;;8.77;3.00;;;21.60;70.80;;;;;;5095621;27;20674;-75
2023/10/11 09:59:01;;;;;;;5.60;3.60;;;21.80;70.80;;;;;;5095744;27;21025;-74
2023/10/11 10:01:38;;;;;;;4.13;2.80;;;21.90;69.50;;;;;;5094030;27;20624;-74
2023/10/11 10:04:06;;;;;;;6.27;3.27;;;22.10;69.30;;;;;;5093268;27;20686;-74
2023/10/11 10:06:33;;;;;;;6.23;2.30;;;21.90;71.20;;;;;;5094279;27;20750;-75
2023/10/11 10:09:24;;;;;;;5.30;2.77;;;21.80;71.00;;;;;;5095372;27;20607;-75
2023/10/11 10:12:20;;;;;;;5.57;4.03;;;21.90;70.80;;;;;;5094358;27;20636;-74
2023/10/11 10:14:50;;;;;;;5.00;2.57;;;22.20;67.80;;;;;;5095938;27;21022;-74
2023/10/11 10:17:18;;;;;;;7.33;3.33;;;22.30;67.90;;;;;;5097286;27;20627;-74
2023/10/11 10:19:46;;;;;;;4.27;3.00;;;22.30;68.50;;;;;;5096220;27;20652;-74
2023/10/11 10:22:21;;;;;;;9.17;3.40;;;22.30;69.50;;;;;;5095879;27;20625;-74
2023/10/11 10:24:54;;;;;;;25.43;2.90;;;22.50;66.80;;;;;;5095834;27;20647;-74
2023/10/11 10:27:46;;;;;;;10.17;4.40;;;22.40;66.90;;;;;;5090022;27;21056;-74
2023/10/11 10:30:21;;;;;;;11.80;3.93;;;22.50;68.10;;;;;;5071261;27;21848;-76
2023/10/11 10:33:19;;;;;;;10.80;2.93;;;22.40;69.00;;;;;;5090774;27;20720;-72
2023/10/11 10:35:48;;;;;;;3.47;3.00;;;22.50;68.80;;;;;;5089697;27;21046;-72
2023/10/11 10:38:16;;;;;;;5.60;3.40;;;22.60;68.60;;;;;;5091032;27;20713;-72
2023/10/11 10:40:45;;;;;;;4.20;3.80;;;22.60;68.90;;;;;;5089219;27;20633;-72
2023/10/11 10:43:20;;;;;;;7.90;3.20;;;22.70;68.60;;;;;;5090588;27;20986;-72
2023/10/11 10:45:49;;;;;;;6.40;4.33;;;22.60;68.40;;;;;;5088890;27;20664;-72
2023/10/11 10:48:16;;;;;;;8.87;3.50;;;22.60;69.20;;;;;;5089125;27;20625;-72
2023/10/11 10:50:50;;;;;;;5.67;3.13;;;22.70;67.90;;;;;;5090202;27;20716;-72
2023/10/11 10:53:17;;;;;;;8.37;3.40;;;22.90;68.00;;;;;;5089579;27;21361;-72
2023/10/11 10:55:44;;;;;;;9.87;3.30;;;22.80;68.80;;;;;;5088906;28;22080;-72
2023/10/11 10:58:18;;;;;;;5.63;3.23;;;22.90;65.80;;;;;;5089119;27;20623;-72
2023/10/11 11:00:47;;;;;;;3.03;2.70;;;22.90;67.30;;;;;;5089734;28;21919;-71
2023/10/11 11:03:17;;;;;;;5.70;3.40;;;22.90;66.40;;;;;;5086427;28;20620;-73
2023/10/11 11:05:55;;;;;;;4.50;3.27;;;23.10;65.70;;;;;;5087733;27;21546;-73
2023/10/11 11:08:27;;;;;;;11.43;3.63;;;23.10;67.50;;;;;;5091051;28;20720;-73
2023/10/11 11:10:54;;;;;;;4.07;3.40;;;23.10;66.30;;;;;;5090106;28;20627;-73
2023/10/11 11:13:25;;;;;;;5.90;2.57;;;23.10;66.30;;;;;;5090529;28;20620;-73
2023/10/11 11:15:55;;;;;;;8.73;3.17;;;23.20;67.30;;;;;;5089993;28;20639;-73
2023/10/11 11:18:32;;;;;;;4.73;2.80;;;23.30;66.30;;;;;;5091184;28;21160;-73
2023/10/11 11:21:17;;;;;;;5.50;3.50;;;23.30;66.90;;;;;;5089489;28;20623;-73
2023/10/11 11:23:44;;;;;;;6.13;3.03;;;23.40;66.50;;;;;;5090640;28;20696;-73
2023/10/11 11:26:15;;;;;;;7.73;3.30;;;23.40;65.20;;;;;;5089502;28;20722;-73
2023/10/11 11:28:43;;;;;;;5.93;2.60;;;23.40;66.60;;;;;;5089486;28;21194;-73
2023/10/11 11:31:13;;;;;;;5.30;3.40;;;23.40;63.90;;;;;;5089981;28;20719;-72
2023/10/11 11:33:47;;;;;;;6.70;3.00;;;23.60;64.40;;;;;;5089704;28;20674;-70
2023/10/11 11:36:30;;;;;;;5.53;3.10;;;23.60;64.50;;;;;;5089801;28;20635;-71
2023/10/11 11:38:56;;;;;;;5.73;3.13;;;23.60;65.60;;;;;;5088777;28;20807;-71
2023/10/11 11:41:23;;;;;;;4.10;2.97;;;23.80;64.00;;;;;;5087601;28;20620;-71
2023/10/11 11:43:53;;;;;;;4.10;2.83;;;23.80;64.90;;;;;;5089334;28;20632;-71
2023/10/11 11:46:18;;;;;;;5.17;3.47;;;23.80;65.30;;;;;;5088111;28;20627;-71
2023/10/11 11:48:45;;;;;;;6.67;2.90;;;23.80;65.80;;;;;;5090033;28;20624;-71
2023/10/11 11:51:14;;;;;;;4.93;2.73;;;23.80;64.20;;;;;;5089906;28;20396;-71
2023/10/11 11:53:43;;;;;;;6.87;3.30;;;23.80;65.10;;;;;;5088235;28;20650;-71
2023/10/11 11:56:11;;;;;;;4.70;2.60;;;23.80;65.20;;;;;;5089055;28;20628;-71
2023/10/11 11:58:44;;;;;;;4.30;2.93;;;23.90;64.70;;;;;;5089460;28;20760;-71
2023/10/11 12:01:16;;;;;;;4.63;3.40;;;24.00;62.80;;;;;;5089680;28;20787;-71
2023/10/11 12:03:42;;;;;;;8.47;3.00;;;24.00;64.90;;;;;;5088691;28;20617;-71
2023/10/11 12:06:22;;;;;;;7.13;3.87;;;24.00;65.50;;;;;;5088276;28;20664;-74
2023/10/11 12:08:57;;;;;;;6.50;3.03;;;24.00;63.60;;;;;;5088896;28;20669;-72
2023/10/11 12:11:28;;;;;;;5.50;3.40;;;24.00;65.60;;;;;;5089277;28;20635;-72
2023/10/11 12:13:56;;;;;;;5.60;3.27;;;24.10;63.80;;;;;;5089509;27;20620;-72
2023/10/11 12:16:24;;;;;;;4.53;2.40;;;24.10;63.70;;;;;;5090983;27;20635;-72
2023/10/11 12:18:53;;;;;;;7.30;2.83;;;24.10;63.20;;;;;;5092170;27;21221;-72
2023/10/11 12:21:20;;;;;;;4.27;2.70;;;24.00;63.30;;;;;;5092456;27;20628;-72
2023/10/11 12:23:47;;;;;;;8.20;3.10;;;24.10;62.10;;;;;;5092647;27;20678;-71
2023/10/11 12:26:16;;;;;;;9.43;2.90;;;24.20;61.10;;;;;;5091967;27;20666;-71
2023/10/11 12:28:43;;;;;;;5.20;2.47;;;24.30;59.10;;;;;;5092422;27;20628;-71
2023/10/11 12:31:11;;;;;;;3.60;2.30;;;24.30;58.70;;;;;;5092200;27;20634;-71
2023/10/11 12:33:40;;;;;;;5.53;2.13;;;24.30;58.80;;;;;;5093092;27;20720;-71
2023/10/11 12:36:07;;;;;;;5.30;2.27;;;24.40;57.30;;;;;;5091527;27;20986;-71
2023/10/11 12:38:36;;;;;;;2.83;2.43;;;24.30;56.00;;;;;;5092096;27;20972;-72
2023/10/11 12:41:04;;;;;;;9.50;2.90;;;24.40;56.20;;;;;;5092604;27;21166;-72
2023/10/11 12:43:32;;;;;;;5.70;2.23;;;24.30;56.10;;;;;;5091809;27;21538;-71
2023/10/11 12:46:00;;;;;;;5.63;2.50;;;24.40;56.80;;;;;;5093596;27;20671;-73
2023/10/11 12:48:27;;;;;;;3.60;1.93;;;24.40;55.60;;;;;;5090602;27;20879;-73
2023/10/11 12:50:58;;;;;;;4.10;2.73;;;24.50;56.90;;;;;;5091478;27;20627;-73
2023/10/11 12:53:29;;;;;;;2.73;2.30;;;24.60;56.00;;;;;;5092582;27;20976;-73
2023/10/11 12:55:56;;;;;;;2.27;1.90;;;24.70;57.30;;;;;;5090472;27;20632;-73
2023/10/11 12:58:27;;;;;;;2.20;2.00;;;24.80;56.10;;;;;;5092735;27;20669;-73
2023/10/11 13:00:58;;;;;;;6.70;2.33;;;24.80;56.00;;;;;;5092245;27;20686;-73
2023/10/11 13:03:26;;;;;;;6.70;2.70;;;24.80;56.20;;;;;;5093066;27;20631;-72
2023/10/11 13:05:54;;;;;;;4.40;2.63;;;24.80;55.70;;;;;;5092045;27;20660;-73
2023/10/11 13:08:24;;;;;;;5.73;2.30;;;24.80;54.70;;;;;;5092121;27;21176;-73
2023/10/11 13:10:53;;;;;;;6.30;2.67;;;24.90;54.80;;;;;;5092274;27;20639;-73
2023/10/11 13:13:21;;;;;;;2.40;2.17;;;24.90;54.70;;;;;;5092191;27;20740;-73
2023/10/11 13:15:55;;;;;;;4.87;2.87;;;24.80;54.00;;;;;;5091285;27;20628;-73
2023/10/11 13:18:24;;;;;;;3.80;2.47;;;24.80;55.10;;;;;;5090428;27;21246;-73
2023/10/11 13:20:51;;;;;;;3.43;2.60;;;24.70;55.80;;;;;;5091522;27;20607;-73
2023/10/11 13:23:28;;;;;;;4.00;2.10;;;24.80;55.70;;;;;;5091413;27;20616;-74
2023/10/11 13:25:56;;;;;;;4.60;2.53;;;24.80;55.40;;;;;;5088349;27;20691;-73
2023/10/11 13:28:26;;;;;;;4.70;2.63;;;24.70;55.70;;;;;;5091034;27;20623;-73